sensor_id;sensor_type;location;lat;lon;timestamp;temperature;humidity
11989;DHT22;6054;50.966;7.094;2022-07-24T00:01:39;28.50;44.30
11989;DHT22;6054;50.966;7.094;2022-07-24T00:04:06;28.50;44.20
11989;DHT22;6054;50.966;7.094;2022-07-24T00:06:35;28.40;44.50
11989;DHT22;6054;50.966;7.094;2022-07-24T00:09:02;28.50;44.30
11989;DHT22;6054;50.966;7.094;2022-07-24T00:11:29;28.40;44.30
11989;DHT22;6054;50.966;7.094;2022-07-24T00:13:56;28.40;44.20
11989;DHT22;6054;50.966;7.094;2022-07-24T00:16:23;28.40;44.40
11989;DHT22;6054;50.966;7.094;2022-07-24T00:18:50;28.30;44.50
11989;DHT22;6054;50.966;7.094;2022-07-24T00:21:16;28.20;44.00
11989;DHT22;6054;50.966;7.094;2022-07-24T00:23:45;28.50;44.10
11989;DHT22;6054;50.966;7.094;2022-07-24T00:26:12;28.20;44.50
11989;DHT22;6054;50.966;7.094;2022-07-24T00:28:38;28.10;44.40
11989;DHT22;6054;50.966;7.094;2022-07-24T00:31:05;28.20;44.30
11989;DHT22;6054;50.966;7.094;2022-07-24T00:33:32;28.10;44.40
11989;DHT22;6054;50.966;7.094;2022-07-24T00:35:59;28.20;44.60
11989;DHT22;6054;50.966;7.094;2022-07-24T00:38:26;28.00;44.50
11989;DHT22;6054;50.966;7.094;2022-07-24T00:40:54;28.00;44.40
11989;DHT22;6054;50.966;7.094;2022-07-24T00:43:21;28.00;44.40
11989;DHT22;6054;50.966;7.094;2022-07-24T00:45:48;28.00;44.80
11989;DHT22;6054;50.966;7.094;2022-07-24T00:48:14;27.90;44.80
11989;DHT22;6054;50.966;7.094;2022-07-24T00:50:43;28.00;44.80
11989;DHT22;6054;50.966;7.094;2022-07-24T00:53:10;27.90;45.10
11989;DHT22;6054;50.966;7.094;2022-07-24T00:55:37;28.00;45.00
11989;DHT22;6054;50.966;7.094;2022-07-24T00:58:05;28.00;45.20
11989;DHT22;6054;50.966;7.094;2022-07-24T01:00:32;27.70;44.80
11989;DHT22;6054;50.966;7.094;2022-07-24T01:02:59;27.70;44.90
11989;DHT22;6054;50.966;7.094;2022-07-24T01:05:26;27.80;45.10
11989;DHT22;6054;50.966;7.094;2022-07-24T01:07:53;27.60;45.10
11989;DHT22;6054;50.966;7.094;2022-07-24T01:10:19;27.60;45.10
11989;DHT22;6054;50.966;7.094;2022-07-24T01:12:47;27.50;45.00
11989;DHT22;6054;50.966;7.094;2022-07-24T01:15:15;27.50;45.30
11989;DHT22;6054;50.966;7.094;2022-07-24T01:17:42;27.40;45.20
11989;DHT22;6054;50.966;7.094;2022-07-24T01:20:10;27.50;45.40
11989;DHT22;6054;50.966;7.094;2022-07-24T01:22:38;27.40;45.90
11989;DHT22;6054;50.966;7.094;2022-07-24T01:25:06;27.40;45.70
11989;DHT22;6054;50.966;7.094;2022-07-24T01:27:33;27.30;46.00
11989;DHT22;6054;50.966;7.094;2022-07-24T01:30:00;27.30;45.80
11989;DHT22;6054;50.966;7.094;2022-07-24T01:32:27;27.40;45.90
11989;DHT22;6054;50.966;7.094;2022-07-24T01:34:54;27.40;46.10
11989;DHT22;6054;50.966;7.094;2022-07-24T01:37:21;27.40;45.90
11989;DHT22;6054;50.966;7.094;2022-07-24T01:39:49;27.20;45.80
11989;DHT22;6054;50.966;7.094;2022-07-24T01:42:16;27.20;45.70
11989;DHT22;6054;50.966;7.094;2022-07-24T01:44:45;27.40;46.10
11989;DHT22;6054;50.966;7.094;2022-07-24T01:47:12;27.30;46.20
11989;DHT22;6054;50.966;7.094;2022-07-24T01:49:39;27.40;46.00
11989;DHT22;6054;50.966;7.094;2022-07-24T01:52:05;27.10;45.60
11989;DHT22;6054;50.966;7.094;2022-07-24T01:54:32;27.30;46.20
11989;DHT22;6054;50.966;7.094;2022-07-24T01:57:00;27.10;45.90
11989;DHT22;6054;50.966;7.094;2022-07-24T01:59:27;27.20;46.00
11989;DHT22;6054;50.966;7.094;2022-07-24T02:01:54;27.20;46.00
11989;DHT22;6054;50.966;7.094;2022-07-24T02:04:21;27.00;46.00
11989;DHT22;6054;50.966;7.094;2022-07-24T02:06:48;27.00;46.10
11989;DHT22;6054;50.966;7.094;2022-07-24T02:09:14;26.90;46.10
11989;DHT22;6054;50.966;7.094;2022-07-24T02:11:41;26.90;46.10
11989;DHT22;6054;50.966;7.094;2022-07-24T02:14:09;26.90;46.30
11989;DHT22;6054;50.966;7.094;2022-07-24T02:16:36;27.10;46.40
11989;DHT22;6054;50.966;7.094;2022-07-24T02:19:03;26.90;46.30
11989;DHT22;6054;50.966;7.094;2022-07-24T02:21:30;26.90;46.40
11989;DHT22;6054;50.966;7.094;2022-07-24T02:23:56;27.00;46.40
11989;DHT22;6054;50.966;7.094;2022-07-24T02:26:23;26.90;46.40
11989;DHT22;6054;50.966;7.094;2022-07-24T02:28:50;26.80;46.40
11989;DHT22;6054;50.966;7.094;2022-07-24T02:31:18;26.80;46.40
11989;DHT22;6054;50.966;7.094;2022-07-24T02:33:45;26.80;46.50
11989;DHT22;6054;50.966;7.094;2022-07-24T02:36:12;26.70;46.50
11989;DHT22;6054;50.966;7.094;2022-07-24T02:38:39;26.70;46.40
11989;DHT22;6054;50.966;7.094;2022-07-24T02:41:06;26.70;46.40
11989;DHT22;6054;50.966;7.094;2022-07-24T02:43:33;26.60;46.50
11989;DHT22;6054;50.966;7.094;2022-07-24T02:46:00;26.80;46.60
11989;DHT22;6054;50.966;7.094;2022-07-24T02:48:28;26.80;46.50
11989;DHT22;6054;50.966;7.094;2022-07-24T02:50:55;26.60;46.70
11989;DHT22;6054;50.966;7.094;2022-07-24T02:53:22;26.60;46.70
11989;DHT22;6054;50.966;7.094;2022-07-24T02:55:48;26.60;46.70
11989;DHT22;6054;50.966;7.094;2022-07-24T02:58:15;26.60;46.80
11989;DHT22;6054;50.966;7.094;2022-07-24T03:00:42;26.60;46.80
11989;DHT22;6054;50.966;7.094;2022-07-24T03:03:09;26.60;46.90
11989;DHT22;6054;50.966;7.094;2022-07-24T03:05:37;26.50;46.80
11989;DHT22;6054;50.966;7.094;2022-07-24T03:08:04;26.70;46.70
11989;DHT22;6054;50.966;7.094;2022-07-24T03:10:31;26.50;46.40
11989;DHT22;6054;50.966;7.094;2022-07-24T03:12:58;26.50;46.70
11989;DHT22;6054;50.966;7.094;2022-07-24T03:15:25;26.50;46.80
11989;DHT22;6054;50.966;7.094;2022-07-24T03:17:53;26.50;47.00
11989;DHT22;6054;50.966;7.094;2022-07-24T03:20:22;26.40;47.30
11989;DHT22;6054;50.966;7.094;2022-07-24T03:22:50;26.40;47.30
11989;DHT22;6054;50.966;7.094;2022-07-24T03:25:17;26.40;47.00
11989;DHT22;6054;50.966;7.094;2022-07-24T03:27:44;26.40;47.00
11989;DHT22;6054;50.966;7.094;2022-07-24T03:30:12;26.30;47.10
11989;DHT22;6054;50.966;7.094;2022-07-24T03:32:39;26.30;46.90
11989;DHT22;6054;50.966;7.094;2022-07-24T03:35:06;26.30;46.90
11989;DHT22;6054;50.966;7.094;2022-07-24T03:37:33;26.20;47.40
11989;DHT22;6054;50.966;7.094;2022-07-24T03:40:02;26.50;47.50
11989;DHT22;6054;50.966;7.094;2022-07-24T03:42:30;26.20;47.70
11989;DHT22;6054;50.966;7.094;2022-07-24T03:44:57;26.20;47.40
11989;DHT22;6054;50.966;7.094;2022-07-24T03:47:23;26.30;47.50
11989;DHT22;6054;50.966;7.094;2022-07-24T03:49:50;26.20;47.50
11989;DHT22;6054;50.966;7.094;2022-07-24T03:52:17;26.20;47.50
11989;DHT22;6054;50.966;7.094;2022-07-24T03:54:44;26.10;47.60
11989;DHT22;6054;50.966;7.094;2022-07-24T03:57:12;26.10;47.50
11989;DHT22;6054;50.966;7.094;2022-07-24T03:59:39;26.20;47.50
11989;DHT22;6054;50.966;7.094;2022-07-24T04:02:05;26.10;47.80
11989;DHT22;6054;50.966;7.094;2022-07-24T04:04:32;26.30;47.80
11989;DHT22;6054;50.966;7.094;2022-07-24T04:06:59;26.10;47.50
11989;DHT22;6054;50.966;7.094;2022-07-24T04:09:26;26.00;47.50
11989;DHT22;6054;50.966;7.094;2022-07-24T04:11:53;26.00;47.70
11989;DHT22;6054;50.966;7.094;2022-07-24T04:14:21;26.00;48.40
11989;DHT22;6054;50.966;7.094;2022-07-24T04:16:47;26.10;47.60
11989;DHT22;6054;50.966;7.094;2022-07-24T04:19:14;26.00;47.80
11989;DHT22;6054;50.966;7.094;2022-07-24T04:21:41;26.00;47.90
11989;DHT22;6054;50.966;7.094;2022-07-24T04:24:08;26.00;47.80
11989;DHT22;6054;50.966;7.094;2022-07-24T04:26:35;26.00;48.10
11989;DHT22;6054;50.966;7.094;2022-07-24T04:29:02;26.20;48.20
11989;DHT22;6054;50.966;7.094;2022-07-24T04:31:30;26.10;48.20
11989;DHT22;6054;50.966;7.094;2022-07-24T04:33:56;26.20;48.40
11989;DHT22;6054;50.966;7.094;2022-07-24T04:36:24;26.10;48.20
11989;DHT22;6054;50.966;7.094;2022-07-24T04:38:50;26.00;48.00
11989;DHT22;6054;50.966;7.094;2022-07-24T04:41:17;26.00;48.00
11989;DHT22;6054;50.966;7.094;2022-07-24T04:43:44;26.00;48.10
11989;DHT22;6054;50.966;7.094;2022-07-24T04:46:11;26.20;48.30
11989;DHT22;6054;50.966;7.094;2022-07-24T04:48:39;26.00;48.20
11989;DHT22;6054;50.966;7.094;2022-07-24T04:51:06;26.10;48.10
11989;DHT22;6054;50.966;7.094;2022-07-24T04:53:33;26.10;48.30
11989;DHT22;6054;50.966;7.094;2022-07-24T04:56:00;26.10;48.20
11989;DHT22;6054;50.966;7.094;2022-07-24T04:58:27;26.10;48.20
11989;DHT22;6054;50.966;7.094;2022-07-24T05:00:54;26.10;48.40
11989;DHT22;6054;50.966;7.094;2022-07-24T05:03:21;26.20;48.40
11989;DHT22;6054;50.966;7.094;2022-07-24T05:05:49;26.20;48.60
11989;DHT22;6054;50.966;7.094;2022-07-24T05:08:16;26.20;48.30
11989;DHT22;6054;50.966;7.094;2022-07-24T05:10:42;26.20;48.40
11989;DHT22;6054;50.966;7.094;2022-07-24T05:13:09;26.20;48.50
11989;DHT22;6054;50.966;7.094;2022-07-24T05:15:36;26.30;48.70
11989;DHT22;6054;50.966;7.094;2022-07-24T05:18:03;26.30;49.00
11989;DHT22;6054;50.966;7.094;2022-07-24T05:20:30;26.40;49.00
11989;DHT22;6054;50.966;7.094;2022-07-24T05:22:58;26.40;49.20
11989;DHT22;6054;50.966;7.094;2022-07-24T05:25:25;26.50;49.50
11989;DHT22;6054;50.966;7.094;2022-07-24T05:27:52;26.60;49.20
11989;DHT22;6054;50.966;7.094;2022-07-24T05:30:19;26.80;49.10
11989;DHT22;6054;50.966;7.094;2022-07-24T05:32:46;26.70;48.70
11989;DHT22;6054;50.966;7.094;2022-07-24T05:35:12;26.70;48.10
11989;DHT22;6054;50.966;7.094;2022-07-24T05:37:39;26.80;47.90
11989;DHT22;6054;50.966;7.094;2022-07-24T05:40:08;27.10;47.80
11989;DHT22;6054;50.966;7.094;2022-07-24T05:42:35;27.00;47.80
11989;DHT22;6054;50.966;7.094;2022-07-24T05:45:02;27.10;47.40
11989;DHT22;6054;50.966;7.094;2022-07-24T05:47:35;27.10;47.30
11989;DHT22;6054;50.966;7.094;2022-07-24T05:50:02;27.20;47.20
11989;DHT22;6054;50.966;7.094;2022-07-24T05:52:29;27.40;46.90
11989;DHT22;6054;50.966;7.094;2022-07-24T05:54:56;27.30;46.30
11989;DHT22;6054;50.966;7.094;2022-07-24T05:57:24;27.40;46.40
11989;DHT22;6054;50.966;7.094;2022-07-24T05:59:51;27.50;46.40
11989;DHT22;6054;50.966;7.094;2022-07-24T06:02:17;27.60;46.30
11989;DHT22;6054;50.966;7.094;2022-07-24T06:04:44;27.60;46.00
11989;DHT22;6054;50.966;7.094;2022-07-24T06:07:11;27.70;45.70
11989;DHT22;6054;50.966;7.094;2022-07-24T06:09:39;27.80;45.50
11989;DHT22;6054;50.966;7.094;2022-07-24T06:12:07;27.80;45.70
11989;DHT22;6054;50.966;7.094;2022-07-24T06:14:35;27.90;45.90
11989;DHT22;6054;50.966;7.094;2022-07-24T06:17:02;27.90;45.70
11989;DHT22;6054;50.966;7.094;2022-07-24T06:19:29;28.00;45.60
11989;DHT22;6054;50.966;7.094;2022-07-24T06:21:55;28.10;45.70
11989;DHT22;6054;50.966;7.094;2022-07-24T06:24:22;28.10;45.60
11989;DHT22;6054;50.966;7.094;2022-07-24T06:26:49;28.20;45.30
11989;DHT22;6054;50.966;7.094;2022-07-24T06:29:16;28.20;45.30
11989;DHT22;6054;50.966;7.094;2022-07-24T06:31:44;28.30;45.20
11989;DHT22;6054;50.966;7.094;2022-07-24T06:34:11;28.40;45.10
11989;DHT22;6054;50.966;7.094;2022-07-24T06:36:37;28.40;44.70
11989;DHT22;6054;50.966;7.094;2022-07-24T06:39:04;28.50;44.40
11989;DHT22;6054;50.966;7.094;2022-07-24T06:41:31;28.60;44.50
11989;DHT22;6054;50.966;7.094;2022-07-24T06:43:58;28.60;44.00
11989;DHT22;6054;50.966;7.094;2022-07-24T06:46:25;28.70;44.00
11989;DHT22;6054;50.966;7.094;2022-07-24T06:48:53;28.80;43.70
11989;DHT22;6054;50.966;7.094;2022-07-24T06:51:20;28.80;43.20
11989;DHT22;6054;50.966;7.094;2022-07-24T06:53:46;28.90;43.20
11989;DHT22;6054;50.966;7.094;2022-07-24T06:56:13;29.00;43.10
11989;DHT22;6054;50.966;7.094;2022-07-24T06:58:40;29.00;43.20
11989;DHT22;6054;50.966;7.094;2022-07-24T07:01:07;29.10;43.00
11989;DHT22;6054;50.966;7.094;2022-07-24T07:03:34;29.10;43.40
11989;DHT22;6054;50.966;7.094;2022-07-24T07:06:02;29.10;42.30
11989;DHT22;6054;50.966;7.094;2022-07-24T07:08:29;29.20;42.60
11989;DHT22;6054;50.966;7.094;2022-07-24T07:10:56;29.20;42.30
11989;DHT22;6054;50.966;7.094;2022-07-24T07:13:22;29.50;42.20
11989;DHT22;6054;50.966;7.094;2022-07-24T07:15:49;29.40;42.30
11989;DHT22;6054;50.966;7.094;2022-07-24T07:18:16;29.50;42.20
11989;DHT22;6054;50.966;7.094;2022-07-24T07:20:43;29.50;42.50
11989;DHT22;6054;50.966;7.094;2022-07-24T07:23:11;29.60;42.00
11989;DHT22;6054;50.966;7.094;2022-07-24T07:25:37;29.70;42.10
11989;DHT22;6054;50.966;7.094;2022-07-24T07:28:04;29.80;42.30
11989;DHT22;6054;50.966;7.094;2022-07-24T07:30:31;29.90;42.20
11989;DHT22;6054;50.966;7.094;2022-07-24T07:32:58;30.00;42.50
11989;DHT22;6054;50.966;7.094;2022-07-24T07:35:25;30.00;41.60
11989;DHT22;6054;50.966;7.094;2022-07-24T07:37:51;30.10;41.80
11989;DHT22;6054;50.966;7.094;2022-07-24T07:40:19;30.20;41.60
11989;DHT22;6054;50.966;7.094;2022-07-24T07:42:46;30.30;41.80
11989;DHT22;6054;50.966;7.094;2022-07-24T07:45:13;30.50;41.90
11989;DHT22;6054;50.966;7.094;2022-07-24T07:47:40;30.50;41.70
11989;DHT22;6054;50.966;7.094;2022-07-24T07:50:08;30.60;41.60
11989;DHT22;6054;50.966;7.094;2022-07-24T07:52:35;30.70;41.70
11989;DHT22;6054;50.966;7.094;2022-07-24T07:55:02;30.80;41.10
11989;DHT22;6054;50.966;7.094;2022-07-24T07:57:30;30.90;41.10
11989;DHT22;6054;50.966;7.094;2022-07-24T07:59:57;31.00;40.80
11989;DHT22;6054;50.966;7.094;2022-07-24T08:02:24;31.10;40.80
11989;DHT22;6054;50.966;7.094;2022-07-24T08:04:50;31.20;40.60
11989;DHT22;6054;50.966;7.094;2022-07-24T08:07:17;31.30;40.50
11989;DHT22;6054;50.966;7.094;2022-07-24T08:09:44;31.40;40.10
11989;DHT22;6054;50.966;7.094;2022-07-24T08:12:11;31.50;40.00
11989;DHT22;6054;50.966;7.094;2022-07-24T08:14:39;31.60;39.30
11989;DHT22;6054;50.966;7.094;2022-07-24T08:17:06;31.70;39.30
11989;DHT22;6054;50.966;7.094;2022-07-24T08:19:33;31.80;39.10
11989;DHT22;6054;50.966;7.094;2022-07-24T08:22:00;31.80;38.80
11989;DHT22;6054;50.966;7.094;2022-07-24T08:24:26;32.00;39.00
11989;DHT22;6054;50.966;7.094;2022-07-24T08:26:53;32.00;39.40
11989;DHT22;6054;50.966;7.094;2022-07-24T08:29:20;32.10;38.30
11989;DHT22;6054;50.966;7.094;2022-07-24T08:31:48;32.20;38.10
11989;DHT22;6054;50.966;7.094;2022-07-24T08:34:15;32.30;37.90
11989;DHT22;6054;50.966;7.094;2022-07-24T08:36:42;32.40;37.80
11989;DHT22;6054;50.966;7.094;2022-07-24T08:39:11;32.50;37.80
11989;DHT22;6054;50.966;7.094;2022-07-24T08:41:38;32.60;37.70
11989;DHT22;6054;50.966;7.094;2022-07-24T08:44:05;32.70;37.90
11989;DHT22;6054;50.966;7.094;2022-07-24T08:46:32;32.80;37.30
11989;DHT22;6054;50.966;7.094;2022-07-24T08:49:01;32.80;37.30
11989;DHT22;6054;50.966;7.094;2022-07-24T08:51:31;32.90;37.00
11989;DHT22;6054;50.966;7.094;2022-07-24T08:53:59;33.00;36.90
11989;DHT22;6054;50.966;7.094;2022-07-24T08:56:28;33.10;36.40
11989;DHT22;6054;50.966;7.094;2022-07-24T08:58:55;33.20;36.70
11989;DHT22;6054;50.966;7.094;2022-07-24T09:01:22;33.30;36.30
11989;DHT22;6054;50.966;7.094;2022-07-24T09:03:49;33.40;36.10
11989;DHT22;6054;50.966;7.094;2022-07-24T09:06:17;33.50;36.10
11989;DHT22;6054;50.966;7.094;2022-07-24T09:08:57;33.60;35.60
11989;DHT22;6054;50.966;7.094;2022-07-24T09:11:25;33.70;35.60
11989;DHT22;6054;50.966;7.094;2022-07-24T09:13:59;33.80;35.30
11989;DHT22;6054;50.966;7.094;2022-07-24T09:17:01;33.90;35.10
11989;DHT22;6054;50.966;7.094;2022-07-24T09:19:28;34.00;35.50
11989;DHT22;6054;50.966;7.094;2022-07-24T09:21:56;34.10;35.00
11989;DHT22;6054;50.966;7.094;2022-07-24T09:24:23;34.20;35.00
11989;DHT22;6054;50.966;7.094;2022-07-24T09:26:52;34.30;34.30
11989;DHT22;6054;50.966;7.094;2022-07-24T09:29:21;34.40;34.50
11989;DHT22;6054;50.966;7.094;2022-07-24T09:31:53;34.50;34.50
11989;DHT22;6054;50.966;7.094;2022-07-24T09:34:21;34.60;34.50
11989;DHT22;6054;50.966;7.094;2022-07-24T09:37:00;34.70;34.30
11989;DHT22;6054;50.966;7.094;2022-07-24T09:39:30;34.80;33.80
11989;DHT22;6054;50.966;7.094;2022-07-24T09:41:59;34.90;33.70
11989;DHT22;6054;50.966;7.094;2022-07-24T09:44:27;35.00;33.80
11989;DHT22;6054;50.966;7.094;2022-07-24T09:46:56;35.00;33.60
11989;DHT22;6054;50.966;7.094;2022-07-24T09:49:24;35.30;33.70
11989;DHT22;6054;50.966;7.094;2022-07-24T09:52:13;35.20;33.50
11989;DHT22;6054;50.966;7.094;2022-07-24T09:54:42;35.40;33.40
11989;DHT22;6054;50.966;7.094;2022-07-24T09:57:17;35.50;33.40
11989;DHT22;6054;50.966;7.094;2022-07-24T09:59:46;35.60;33.70
11989;DHT22;6054;50.966;7.094;2022-07-24T10:02:15;35.70;33.50
11989;DHT22;6054;50.966;7.094;2022-07-24T10:04:43;35.80;33.20
11989;DHT22;6054;50.966;7.094;2022-07-24T10:07:13;35.90;32.80
11989;DHT22;6054;50.966;7.094;2022-07-24T10:09:42;36.00;32.40
11989;DHT22;6054;50.966;7.094;2022-07-24T10:12:12;36.10;32.40
11989;DHT22;6054;50.966;7.094;2022-07-24T10:14:40;36.20;32.10
11989;DHT22;6054;50.966;7.094;2022-07-24T10:17:08;36.30;32.00
11989;DHT22;6054;50.966;7.094;2022-07-24T10:19:40;36.30;32.30
11989;DHT22;6054;50.966;7.094;2022-07-24T10:22:11;36.40;31.90
11989;DHT22;6054;50.966;7.094;2022-07-24T10:24:58;36.50;31.50
11989;DHT22;6054;50.966;7.094;2022-07-24T10:27:28;36.50;31.60
11989;DHT22;6054;50.966;7.094;2022-07-24T10:29:57;36.60;31.50
11989;DHT22;6054;50.966;7.094;2022-07-24T10:32:25;36.70;31.20
11989;DHT22;6054;50.966;7.094;2022-07-24T10:35:02;36.70;31.10
11989;DHT22;6054;50.966;7.094;2022-07-24T10:37:39;36.80;31.10
11989;DHT22;6054;50.966;7.094;2022-07-24T10:40:14;36.80;30.90
11989;DHT22;6054;50.966;7.094;2022-07-24T10:43:07;36.90;31.10
11989;DHT22;6054;50.966;7.094;2022-07-24T10:45:35;36.90;31.00
11989;DHT22;6054;50.966;7.094;2022-07-24T10:48:27;37.00;31.00
11989;DHT22;6054;50.966;7.094;2022-07-24T10:51:02;37.10;30.70
11989;DHT22;6054;50.966;7.094;2022-07-24T10:53:44;37.10;30.30
11989;DHT22;6054;50.966;7.094;2022-07-24T10:56:16;37.20;30.00
11989;DHT22;6054;50.966;7.094;2022-07-24T10:58:55;37.30;30.30
11989;DHT22;6054;50.966;7.094;2022-07-24T11:01:39;37.40;30.10
11989;DHT22;6054;50.966;7.094;2022-07-24T11:04:27;37.30;30.00
11989;DHT22;6054;50.966;7.094;2022-07-24T11:06:56;37.40;30.10
11989;DHT22;6054;50.966;7.094;2022-07-24T11:09:28;37.50;30.00
11989;DHT22;6054;50.966;7.094;2022-07-24T11:12:06;37.50;29.60
11989;DHT22;6054;50.966;7.094;2022-07-24T11:14:49;37.50;29.60
11989;DHT22;6054;50.966;7.094;2022-07-24T11:17:36;37.50;29.80
11989;DHT22;6054;50.966;7.094;2022-07-24T11:20:05;37.60;29.60
11989;DHT22;6054;50.966;7.094;2022-07-24T11:22:41;37.60;29.60
11989;DHT22;6054;50.966;7.094;2022-07-24T11:25:15;37.80;29.80
11989;DHT22;6054;50.966;7.094;2022-07-24T11:27:54;37.70;29.50
11989;DHT22;6054;50.966;7.094;2022-07-24T11:30:29;37.70;29.40
11989;DHT22;6054;50.966;7.094;2022-07-24T11:32:56;37.70;29.30
11989;DHT22;6054;50.966;7.094;2022-07-24T11:35:28;37.80;29.20
11989;DHT22;6054;50.966;7.094;2022-07-24T11:37:55;37.80;29.30
11989;DHT22;6054;50.966;7.094;2022-07-24T11:40:23;38.00;29.20
11989;DHT22;6054;50.966;7.094;2022-07-24T11:42:57;37.80;29.00
11989;DHT22;6054;50.966;7.094;2022-07-24T11:45:24;37.90;29.30
11989;DHT22;6054;50.966;7.094;2022-07-24T11:47:51;37.90;29.20
11989;DHT22;6054;50.966;7.094;2022-07-24T11:50:21;37.90;29.00
11989;DHT22;6054;50.966;7.094;2022-07-24T11:52:48;38.00;28.90
11989;DHT22;6054;50.966;7.094;2022-07-24T11:55:17;38.00;28.90
11989;DHT22;6054;50.966;7.094;2022-07-24T11:57:47;38.10;29.10
11989;DHT22;6054;50.966;7.094;2022-07-24T12:00:17;38.10;29.00
11989;DHT22;6054;50.966;7.094;2022-07-24T12:02:45;38.20;29.00
11989;DHT22;6054;50.966;7.094;2022-07-24T12:05:13;38.30;29.00
11989;DHT22;6054;50.966;7.094;2022-07-24T12:07:40;38.30;28.70
11989;DHT22;6054;50.966;7.094;2022-07-24T12:10:07;38.30;28.30
11989;DHT22;6054;50.966;7.094;2022-07-24T12:12:35;38.30;28.40
11989;DHT22;6054;50.966;7.094;2022-07-24T12:15:07;38.40;28.60
11989;DHT22;6054;50.966;7.094;2022-07-24T12:17:52;38.40;28.50
11989;DHT22;6054;50.966;7.094;2022-07-24T12:20:21;38.40;28.20
11989;DHT22;6054;50.966;7.094;2022-07-24T12:22:48;38.40;28.00
11989;DHT22;6054;50.966;7.094;2022-07-24T12:25:15;38.30;28.20
11989;DHT22;6054;50.966;7.094;2022-07-24T12:27:43;38.40;28.30
11989;DHT22;6054;50.966;7.094;2022-07-24T12:30:20;38.40;28.20
11989;DHT22;6054;50.966;7.094;2022-07-24T12:33:01;38.50;28.10
11989;DHT22;6054;50.966;7.094;2022-07-24T12:35:30;38.60;28.30
11989;DHT22;6054;50.966;7.094;2022-07-24T12:37:58;38.60;28.40
11989;DHT22;6054;50.966;7.094;2022-07-24T12:40:29;38.70;28.20
11989;DHT22;6054;50.966;7.094;2022-07-24T12:42:57;38.70;27.80
11989;DHT22;6054;50.966;7.094;2022-07-24T12:45:26;38.70;27.60
11989;DHT22;6054;50.966;7.094;2022-07-24T12:48:12;38.70;27.50
11989;DHT22;6054;50.966;7.094;2022-07-24T12:50:57;38.70;27.60
11989;DHT22;6054;50.966;7.094;2022-07-24T12:53:27;38.70;27.70
11989;DHT22;6054;50.966;7.094;2022-07-24T12:56:13;38.80;27.70
11989;DHT22;6054;50.966;7.094;2022-07-24T12:58:55;38.80;27.80
11989;DHT22;6054;50.966;7.094;2022-07-24T13:01:26;38.90;27.70
11989;DHT22;6054;50.966;7.094;2022-07-24T13:03:55;38.90;27.80
11989;DHT22;6054;50.966;7.094;2022-07-24T13:06:32;39.00;27.90
11989;DHT22;6054;50.966;7.094;2022-07-24T13:08:59;39.00;28.00
11989;DHT22;6054;50.966;7.094;2022-07-24T13:11:26;39.00;27.60
11989;DHT22;6054;50.966;7.094;2022-07-24T13:13:53;39.00;27.60
11989;DHT22;6054;50.966;7.094;2022-07-24T13:16:20;39.00;27.40
11989;DHT22;6054;50.966;7.094;2022-07-24T13:18:50;39.20;27.30
11989;DHT22;6054;50.966;7.094;2022-07-24T13:21:17;39.30;27.40
11989;DHT22;6054;50.966;7.094;2022-07-24T13:23:44;39.20;26.50
11989;DHT22;6054;50.966;7.094;2022-07-24T13:26:11;39.30;26.90
11989;DHT22;6054;50.966;7.094;2022-07-24T13:28:38;39.30;26.90
11989;DHT22;6054;50.966;7.094;2022-07-24T13:31:06;39.30;26.90
11989;DHT22;6054;50.966;7.094;2022-07-24T13:33:33;39.30;26.80
11989;DHT22;6054;50.966;7.094;2022-07-24T13:36:01;39.30;26.70
11989;DHT22;6054;50.966;7.094;2022-07-24T13:38:28;39.30;26.80
11989;DHT22;6054;50.966;7.094;2022-07-24T13:40:54;39.30;26.70
11989;DHT22;6054;50.966;7.094;2022-07-24T13:43:21;39.40;26.80
11989;DHT22;6054;50.966;7.094;2022-07-24T13:45:48;39.30;26.90
11989;DHT22;6054;50.966;7.094;2022-07-24T13:48:17;39.30;26.90
11989;DHT22;6054;50.966;7.094;2022-07-24T13:50:44;39.30;26.60
11989;DHT22;6054;50.966;7.094;2022-07-24T13:53:12;39.30;26.60
11989;DHT22;6054;50.966;7.094;2022-07-24T13:55:39;39.30;26.60
11989;DHT22;6054;50.966;7.094;2022-07-24T13:58:05;39.40;26.80
11989;DHT22;6054;50.966;7.094;2022-07-24T14:00:33;39.50;26.60
11989;DHT22;6054;50.966;7.094;2022-07-24T14:03:00;39.50;26.10
11989;DHT22;6054;50.966;7.094;2022-07-24T14:05:27;39.50;26.20
11989;DHT22;6054;50.966;7.094;2022-07-24T14:07:54;39.50;25.90
11989;DHT22;6054;50.966;7.094;2022-07-24T14:10:22;39.60;26.50
11989;DHT22;6054;50.966;7.094;2022-07-24T14:12:50;39.60;26.30
11989;DHT22;6054;50.966;7.094;2022-07-24T14:15:17;39.50;26.40
11989;DHT22;6054;50.966;7.094;2022-07-24T14:17:44;39.50;26.50
11989;DHT22;6054;50.966;7.094;2022-07-24T14:20:12;39.50;26.50
11989;DHT22;6054;50.966;7.094;2022-07-24T14:22:41;39.50;26.50
11989;DHT22;6054;50.966;7.094;2022-07-24T14:25:09;39.50;26.40
11989;DHT22;6054;50.966;7.094;2022-07-24T14:27:37;39.40;26.40
11989;DHT22;6054;50.966;7.094;2022-07-24T14:30:05;39.40;26.50
11989;DHT22;6054;50.966;7.094;2022-07-24T14:32:32;39.50;27.00
11989;DHT22;6054;50.966;7.094;2022-07-24T14:35:00;39.50;26.70
11989;DHT22;6054;50.966;7.094;2022-07-24T14:37:27;39.50;26.70
11989;DHT22;6054;50.966;7.094;2022-07-24T14:39:54;39.50;26.50
11989;DHT22;6054;50.966;7.094;2022-07-24T14:42:21;39.50;26.50
11989;DHT22;6054;50.966;7.094;2022-07-24T14:44:49;39.50;26.40
11989;DHT22;6054;50.966;7.094;2022-07-24T14:47:16;39.50;26.30
11989;DHT22;6054;50.966;7.094;2022-07-24T14:49:43;39.50;26.40
11989;DHT22;6054;50.966;7.094;2022-07-24T14:52:11;39.50;26.40
11989;DHT22;6054;50.966;7.094;2022-07-24T14:54:39;39.50;26.10
11989;DHT22;6054;50.966;7.094;2022-07-24T14:57:05;39.50;26.40
11989;DHT22;6054;50.966;7.094;2022-07-24T14:59:34;39.50;26.30
11989;DHT22;6054;50.966;7.094;2022-07-24T15:02:02;39.50;26.20
11989;DHT22;6054;50.966;7.094;2022-07-24T15:04:29;39.60;26.10
11989;DHT22;6054;50.966;7.094;2022-07-24T15:06:56;39.60;26.30
11989;DHT22;6054;50.966;7.094;2022-07-24T15:09:22;39.70;26.10
11989;DHT22;6054;50.966;7.094;2022-07-24T15:11:49;39.70;25.90
11989;DHT22;6054;50.966;7.094;2022-07-24T15:14:16;39.70;26.30
11989;DHT22;6054;50.966;7.094;2022-07-24T15:16:43;39.70;26.10
11989;DHT22;6054;50.966;7.094;2022-07-24T15:19:12;39.80;25.90
11989;DHT22;6054;50.966;7.094;2022-07-24T15:21:38;39.80;25.80
11989;DHT22;6054;50.966;7.094;2022-07-24T15:24:07;39.80;25.70
11989;DHT22;6054;50.966;7.094;2022-07-24T15:26:34;39.80;26.10
11989;DHT22;6054;50.966;7.094;2022-07-24T15:29:01;39.80;26.20
11989;DHT22;6054;50.966;7.094;2022-07-24T15:31:28;39.80;25.90
11989;DHT22;6054;50.966;7.094;2022-07-24T15:33:55;39.80;25.90
11989;DHT22;6054;50.966;7.094;2022-07-24T15:36:24;39.80;26.10
11989;DHT22;6054;50.966;7.094;2022-07-24T15:38:50;39.80;26.00
11989;DHT22;6054;50.966;7.094;2022-07-24T15:41:17;39.80;25.80
11989;DHT22;6054;50.966;7.094;2022-07-24T15:43:44;39.80;26.10
11989;DHT22;6054;50.966;7.094;2022-07-24T15:46:11;39.90;26.20
11989;DHT22;6054;50.966;7.094;2022-07-24T15:48:37;40.00;25.80
11989;DHT22;6054;50.966;7.094;2022-07-24T15:51:05;40.00;25.90
11989;DHT22;6054;50.966;7.094;2022-07-24T15:53:33;40.20;26.00